Time;durP1;ratioP1;P1;durP2;ratioP2;P2;SDS_P1;SDS_P2;PMS_P1;PMS_P2;Temp;Humidity;BMP_temperature;BMP_pressure;BME280_temperature;BME280_humidity;BME280_pressure;Samples;Min_cycle;Max_cycle;Signal;HPM_P1;HPM_P2
2024/04/03 00:08:24;;;;;;;5.2;1.4;;;;;;;9.37;69.76;97818.333333333;;;;
2024/04/03 00:19:24;;;;;;;2.6;1.1;;;;;;;9.19;70.24;97823.333333333;;;;
2024/04/03 00:29:24;;;;;;;2.6;1.1;;;;;;;9.11;70.1;97820;;;;
2024/04/03 00:40:24;;;;;;;2.6;1.1;;;;;;;9.06;70.34;97828.333333333;;;;
2024/04/03 00:51:24;;;;;;;2.2;1;;;;;;;9.13;69.57;97828.333333333;;;;
2024/04/03 01:01:24;;;;;;;2.2;1;;;;;;;9.11;69.97;97835;;;;
2024/04/03 01:11:24;;;;;;;2.2;1;;;;;;;9.22;69.75;97838.333333333;;;;
2024/04/03 01:22:24;;;;;;;1.7;1.1;;;;;;;9.09;70.33;97838.333333333;;;;
2024/04/03 01:33:24;;;;;;;1.7;1.1;;;;;;;9.08;70.54;97843.333333333;;;;
2024/04/03 01:44:24;;;;;;;1.7;1.1;;;;;;;9.16;70.15;97841.666666667;;;;
2024/04/03 01:54:24;;;;;;;1.9;1;;;;;;;9.23;70.36;97836.666666667;;;;
2024/04/03 02:04:24;;;;;;;1.9;1;;;;;;;9.25;70.17;97840;;;;
2024/04/03 02:15:24;;;;;;;1.9;1;;;;;;;9.39;69.48;97830;;;;
2024/04/03 02:26:24;;;;;;;2.6;0.8;;;;;;;9.45;69.44;97815;;;;
2024/04/03 02:36:24;;;;;;;2.6;0.8;;;;;;;9.45;68.74;97815;;;;
2024/04/03 02:47:24;;;;;;;2.2;0.8;;;;;;;9.35;69.34;97808.333333333;;;;
2024/04/03 02:57:24;;;;;;;2.2;0.8;;;;;;;9.45;69.42;97808.333333333;;;;
2024/04/03 03:07:24;;;;;;;2.2;0.8;;;;;;;9.49;69;97816.666666667;;;;
2024/04/03 03:17:24;;;;;;;2.3;1.3;;;;;;;9.42;69.89;97811.666666667;;;;
2024/04/03 03:28:24;;;;;;;2.3;1.3;;;;;;;9.39;70.67;97813.333333333;;;;
2024/04/03 03:38:24;;;;;;;2.3;1.3;;;;;;;9.48;70.14;97808.333333333;;;;
2024/04/03 03:59:24;;;;;;;2.5;1.4;;;;;;;9.6;69.37;97806.666666667;;;;
2024/04/03 04:10:24;;;;;;;2.5;1.4;;;;;;;9.59;69.25;97803.333333333;;;;
2024/04/03 04:20:24;;;;;;;3.1;1.8;;;;;;;9.5;69.33;97808.333333333;;;;
2024/04/03 04:30:24;;;;;;;3.1;1.8;;;;;;;9.5;69.74;97808.333333333;;;;
2024/04/03 04:40:24;;;;;;;3.1;1.8;;;;;;;9.53;69;97811.666666667;;;;
2024/04/03 04:50:24;;;;;;;1.9;1;;;;;;;9.63;68.99;97818.333333333;;;;
2024/04/03 05:01:24;;;;;;;1.9;1;;;;;;;9.71;70.92;97825;;;;
2024/04/03 05:11:24;;;;;;;1.9;1;;;;;;;9.67;70;97838.333333333;;;;
2024/04/03 05:22:24;;;;;;;1.9;1.1;;;;;;;9.76;70.05;97840;;;;
2024/04/03 05:32:24;;;;;;;1.9;1.1;;;;;;;9.81;70.16;97856.666666667;;;;
2024/04/03 05:42:24;;;;;;;1.9;1.1;;;;;;;10.09;69.54;97850;;;;
2024/04/03 05:53:24;;;;;;;2.4;1.1;;;;;;;10.23;68.53;97851.666666667;;;;
2024/04/03 06:04:24;;;;;;;2.4;1.1;;;;;;;10.44;68.54;97860;;;;
2024/04/03 06:15:24;;;;;;;2.4;1.1;;;;;;;10.62;67.66;97861.666666667;;;;
2024/04/03 06:25:24;;;;;;;2.5;1.2;;;;;;;10.64;67.19;97866.666666667;;;;
2024/04/03 06:36:24;;;;;;;2.5;1.2;;;;;;;10.68;67.09;97870;;;;
2024/04/03 06:46:24;;;;;;;2.5;1.2;;;;;;;10.59;66.34;97888.333333333;;;;
2024/04/03 06:57:24;;;;;;;3.3;1.6;;;;;;;11.02;66.3;97880;;;;
2024/04/03 07:07:24;;;;;;;3.3;1.6;;;;;;;11.55;65.62;97881.666666667;;;;
2024/04/03 07:17:24;;;;;;;4.7;1.1;;;;;;;11.76;63.58;97885;;;;
2024/04/03 07:27:24;;;;;;;4.7;1.1;;;;;;;11.85;62.27;97875;;;;
2024/04/03 07:38:24;;;;;;;4.7;1.1;;;;;;;11.76;61.78;97870;;;;
2024/04/03 07:48:24;;;;;;;2.4;1.1;;;;;;;12.14;61.65;97864;;;;
2024/04/03 07:59:24;;;;;;;2.4;1.1;;;;;;;12.15;61.2;97876;;;;
2024/04/03 08:09:25;;;;;;;;;;;;;;;;;97886.666666667;;;;
2024/04/03 08:20:25;;;;;;;;;;;;;;;13.2;55.83;97875;;;;
2024/04/03 08:30:25;;;;;;;4.3;2;;;;;;;12.99;54.32;97880;;;;
2024/04/03 08:41:25;;;;;;;4.3;2;;;;;;;13.22;54.75;97877.5;;;;
2024/04/03 08:51:25;;;;;;;4.3;2;;;;;;;13.58;55.16;97870;;;;
2024/04/03 09:02:24;;;;;;;5.3;1.5;;;;;;;13.5;53.18;97867.5;;;;
2024/04/03 09:12:24;;;;;;;5.3;1.5;;;;;;;14.29;52.3;97872.5;;;;
2024/04/03 09:23:24;;;;;;;5.3;1.5;;;;;;;14.37;51.41;97877.5;;;;
2024/04/03 09:33:25;;;;;;;4.4;1.6;;;;;;;14.69;50.67;97865;;;;
2024/04/03 09:44:24;;;;;;;4.4;1.6;;;;;;;14.52;49.7;97867.5;;;;
2024/04/03 09:55:28;;;;;;;4.4;1.6;;;;;;;14.71;49.37;97865;;;;
2024/04/03 10:05:24;;;;;;;4.5;2;;;;;;;14.98;49.18;97860;;;;
2024/04/03 10:15:25;;;;;;;4.5;2;;;;;;;14.76;47.59;97867.5;;;;
2024/04/03 10:26:24;;;;;;;5.7;1.7;;;;;;;14.72;49.99;97872.5;;;;
2024/04/03 10:36:24;;;;;;;5.7;1.7;;;;;;;14.78;48.78;97877.5;;;;
2024/04/03 10:46:24;;;;;;;5.7;1.7;;;;;;;14.98;48.51;97875;;;;
2024/04/03 10:57:24;;;;;;;5.5;1.9;;;;;;;14.95;46.16;97895;;;;
2024/04/03 11:07:25;;;;;;;5.5;1.9;;;;;;;15.08;46.33;97893.333333333;;;;
2024/04/03 11:18:24;;;;;;;5.5;1.9;;;;;;;15.37;46.22;97898.333333333;;;;
2024/04/03 11:28:24;;;;;;;3.8;1.7;;;;;;;15.31;46.45;97908.333333333;;;;
2024/04/03 11:38:25;;;;;;;3.8;1.7;;;;;;;15.7;44.89;97910;;;;
2024/04/03 11:48:25;;;;;;;3.8;1.7;;;;;;;15.92;43.78;97900;;;;
2024/04/03 11:58:24;;;;;;;5.5;1.2;;;;;;;16.29;43.07;97905;;;;
2024/04/03 12:09:24;;;;;;;5.5;1.2;;;;;;;16.27;44.37;97920;;;;
2024/04/03 12:19:29;;;;;;;5.5;1.2;;;;;;;16.15;44.39;97915;;;;
2024/04/03 12:29:25;;;;;;;4.1;1.5;;;;;;;16.27;44.42;97920;;;;
2024/04/03 12:40:25;;;;;;;4.1;1.5;;;;;;;16.95;45.1;97923.333333333;;;;
2024/04/03 12:51:25;;;;;;;4.1;1.5;;;;;;;16.94;45.67;97926.666666667;;;;
2024/04/03 13:01:25;;;;;;;3.4;1.4;;;;;;;16.83;46.37;97931.666666667;;;;
2024/04/03 13:12:24;;;;;;;3.4;1.4;;;;;;;16.95;46.4;97941.666666667;;;;
2024/04/03 13:22:31;;;;;;;3.4;1.4;;;;;;;17.17;42.4;97953.333333333;;;;
2024/04/03 13:32:25;;;;;;;4.3;1.4;;;;;;;17.18;44.59;97960;;;;
2024/04/03 13:43:25;;;;;;;4.3;1.4;;;;;;;17.39;45.5;97953.333333333;;;;
2024/04/03 13:54:25;;;;;;;4.3;1.4;;;;;;;17.45;44.76;97960;;;;
2024/04/03 14:05:25;;;;;;;3.5;1.3;;;;;;;16.8;46.67;97965;;;;
2024/04/03 14:16:24;;;;;;;3.5;1.3;;;;;;;16.39;47.5;97970;;;;
2024/04/03 14:26:25;;;;;;;3.2;1.1;;;;;;;16.72;46.67;97971.666666667;;;;
2024/04/03 14:36:25;;;;;;;3.2;1.1;;;;;;;17.2;44.81;97966.666666667;;;;
2024/04/03 14:47:25;;;;;;;3.2;1.1;;;;;;;17.41;45.38;97971.666666667;;;;
2024/04/03 14:58:25;;;;;;;3.8;1.6;;;;;;;16.99;45.72;97976.666666667;;;;
2024/04/03 15:09:26;;;;;;;3.8;1.6;;;;;;;16.68;45.92;97976.666666667;;;;
2024/04/03 15:20:25;;;;;;;3.8;1.6;;;;;;;16.9;44.73;97980;;;;
2024/04/03 15:30:25;;;;;;;4.1;1.4;;;;;;;16.4;46.53;97983.333333333;;;;
2024/04/03 15:41:25;;;;;;;4.1;1.4;;;;;;;16.17;47.35;97985;;;;
2024/04/03 15:51:25;;;;;;;4.1;1.4;;;;;;;15.92;48.82;97986;;;;
2024/04/03 16:01:26;;;;;;;3.8;1.9;;;;;;;15.73;49.1;98006.666666667;;;;
2024/04/03 16:12:25;;;;;;;3.8;1.9;;;;;;;15.6;49.76;98010;;;;
2024/04/03 16:22:25;;;;;;;3.8;1.9;;;;;;;15.31;50.93;98010;;;;
2024/04/03 16:32:25;;;;;;;7.3;2.3;;;;;;;15.14;52.07;98011.666666667;;;;
2024/04/03 16:43:25;;;;;;;7.3;2.3;;;;;;;14.96;52.41;98018.333333333;;;;
2024/04/03 16:53:25;;;;;;;7.3;2.3;;;;;;;14.73;53.39;98030;;;;
2024/04/03 17:03:25;;;;;;;5.5;2.4;;;;;;;14.54;54.17;98038.333333333;;;;
2024/04/03 17:13:25;;;;;;;5.5;2.4;;;;;;;14.44;53.88;98043.333333333;;;;
2024/04/03 17:23:25;;;;;;;5.5;2.4;;;;;;;14.32;54.07;98046.666666667;;;;
2024/04/03 17:34:25;;;;;;;5.3;2.6;;;;;;;14.22;54.24;98060;;;;
2024/04/03 17:45:25;;;;;;;5.3;2.6;;;;;;;14.09;54.85;98076.666666667;;;;
2024/04/03 17:55:25;;;;;;;5.3;2.6;;;;;;;13.98;55.53;98095;;;;
2024/04/03 18:06:26;;;;;;;8.4;3.4;;;;;;;13.9;56.13;98111.666666667;;;;
2024/04/03 18:16:25;;;;;;;8.4;3.4;;;;;;;13.76;57.25;98136.666666667;;;;
2024/04/03 18:27:25;;;;;;;8.1;4.8;;;;;;;13.79;57.01;98151.666666667;;;;
2024/04/03 18:37:25;;;;;;;8.1;4.8;;;;;;;13.71;57.82;98166.666666667;;;;
2024/04/03 18:48:25;;;;;;;8.1;4.8;;;;;;;13.68;59.66;98173.333333333;;;;
2024/04/03 18:58:27;;;;;;;6.5;3.4;;;;;;;13.64;59.13;98186.666666667;;;;
2024/04/03 19:08:25;;;;;;;6.5;3.4;;;;;;;13.6;59.33;98193.333333333;;;;
2024/04/03 19:19:27;;;;;;;6.5;3.4;;;;;;;13.47;60.41;98198.333333333;;;;
2024/04/03 19:30:25;;;;;;;6;3.6;;;;;;;13.46;60.78;98200;;;;
2024/04/03 19:40:25;;;;;;;6;3.6;;;;;;;13.37;61.85;98206.666666667;;;;
2024/04/03 19:51:25;;;;;;;6;3.6;;;;;;;13.34;62.36;98215;;;;
2024/04/03 20:01:25;;;;;;;6.4;2.8;;;;;;;13.22;63.79;98223.333333333;;;;
2024/04/03 20:11:25;;;;;;;6.4;2.8;;;;;;;13.03;66.57;98240;;;;
2024/04/03 20:22:25;;;;;;;6.4;2.8;;;;;;;12.71;70.21;98268.333333333;;;;
2024/04/03 20:33:27;;;;;;;6.8;3.8;;;;;;;12.36;73.68;98276.666666667;;;;
2024/04/03 20:44:25;;;;;;;6.8;3.8;;;;;;;12.24;75.11;98285;;;;
2024/04/03 20:54:25;;;;;;;6.8;3.8;;;;;;;11.92;77.86;98285;;;;
2024/04/03 21:05:25;;;;;;;7.2;4.2;;;;;;;11.72;78.97;98285;;;;
2024/04/03 21:16:25;;;;;;;7.2;4.2;;;;;;;11.69;79.1;98285;;;;
2024/04/03 21:26:25;;;;;;;4.2;1.9;;;;;;;11.68;78.83;98286.666666667;;;;
2024/04/03 21:36:25;;;;;;;4.2;1.9;;;;;;;11.64;79.33;98291.666666667;;;;
2024/04/03 21:47:25;;;;;;;4.2;1.9;;;;;;;11.54;80.12;98296.666666667;;;;
2024/04/03 21:57:26;;;;;;;8.3;2.8;;;;;;;11.41;80.99;98298.333333333;;;;
2024/04/03 22:08:25;;;;;;;8.3;2.8;;;;;;;11.34;81.61;98300;;;;
2024/04/03 22:19:25;;;;;;;8.3;2.8;;;;;;;11.2;82.23;98300;;;;
2024/04/03 22:30:25;;;;;;;3.9;2;;;;;;;11.24;82.34;98298.333333333;;;;
2024/04/03 22:40:25;;;;;;;3.9;2;;;;;;;11.22;82.56;98298.333333333;;;;
2024/04/03 22:51:25;;;;;;;3.9;2;;;;;;;11.19;82.46;98295;;;;
2024/04/03 23:01:25;;;;;;;4.2;1.9;;;;;;;11.11;83.1;98288.333333333;;;;
2024/04/03 23:11:25;;;;;;;4.2;1.9;;;;;;;11.03;83.16;98286.666666667;;;;
2024/04/03 23:22:25;;;;;;;4.2;1.9;;;;;;;11.04;83.31;98280;;;;
2024/04/03 23:32:25;;;;;;;6.2;2.6;;;;;;;11.07;83.2;98278.333333333;;;;
2024/04/03 23:43:25;;;;;;;6.2;2.6;;;;;;;10.96;83.27;98273.333333333;;;;
2024/04/03 23:54:26;;;;;;;6.2;2.6;;;;;;;11.07;82.65;98268.333333333;;;;
